4XCBB LLHZ-LLHA
Flight info
| Callsign | 4XCBB |
|---|---|
| Flight time | N/A |
| Altitude | 6000 |
| Route | LLHZ BENQO1 NAT J15 ATLIT IFR/VFR HOTRM DAROM BGLIM LLHA |
| Aircraft | PA60/L-IFR/5275 |
Departure
| Time | 2026-04-25 20:55 |
|---|---|
| Airport | Herzliya Airport (LLHZ) |
Arrival
| Time | N/A |
|---|---|
| Airport | Uri Michaeli Haifa International Airport (LLHA) |
| Time | Latitude | Longitude | Altitude | Speed | Heading |
|---|---|---|---|---|---|
| 2026-04-25 20:44 | 32.17853 | 34.83811 | 125 ft | 0 kts | 25° |
| 2026-04-25 20:51 | 32.17861 | 34.83814 | 121 ft | 0 kts | 9° |
| 2026-04-25 20:51 | 32.17879 | 34.83821 | 124 ft | 5 kts | 43° |
| 2026-04-25 20:52 | 32.17882 | 34.83843 | 122 ft | 0 kts | 98° |
| 2026-04-25 20:53 | 32.17881 | 34.83855 | 125 ft | 5 kts | 81° |
| 2026-04-25 20:53 | 32.17896 | 34.83865 | 125 ft | 2 kts | 13° |
| 2026-04-25 20:54 | 32.17912 | 34.83856 | 125 ft | 2 kts | 286° |
| 2026-04-25 20:54 | 32.17951 | 34.83724 | 121 ft | 60 kts | 290° |
| 2026-04-25 20:55 | 32.18156 | 34.83054 | 217 ft | 96 kts | 298° |
| 2026-04-25 20:55 | 32.18738 | 34.82779 | 530 ft | 110 kts | 21° |
| 2026-04-25 20:55 | 32.19440 | 34.83222 | 840 ft | 120 kts | 30° |
| 2026-04-25 20:55 | 32.20264 | 34.83533 | 1131 ft | 128 kts | 356° |
| 2026-04-25 20:56 | 32.21036 | 34.83006 | 1311 ft | 144 kts | 305° |
| 2026-04-25 20:56 | 32.21426 | 34.81806 | 1249 ft | 168 kts | 289° |
| 2026-04-25 20:56 | 32.21840 | 34.80465 | 1331 ft | 175 kts | 291° |
| 2026-04-25 20:56 | 32.22298 | 34.79156 | 1713 ft | 162 kts | 295° |
| 2026-04-25 20:57 | 32.22756 | 34.77982 | 2109 ft | 159 kts | 296° |
| 2026-04-25 20:57 | 32.23242 | 34.76791 | 2162 ft | 170 kts | 298° |
| 2026-04-25 20:57 | 32.23985 | 34.75661 | 2157 ft | 180 kts | 319° |
| 2026-04-25 20:57 | 32.25132 | 34.75005 | 2101 ft | 189 kts | 344° |
| 2026-04-25 20:58 | 32.26416 | 34.74600 | 2144 ft | 191 kts | 346° |
| 2026-04-25 20:58 | 32.27701 | 34.74227 | 2172 ft | 194 kts | 345° |
| 2026-04-25 20:58 | 32.28955 | 34.73719 | 2262 ft | 192 kts | 339° |
| 2026-04-25 20:58 | 32.30212 | 34.73079 | 2166 ft | 198 kts | 333° |
| 2026-04-25 20:59 | 32.31404 | 34.72265 | 2203 ft | 196 kts | 326° |
| 2026-04-25 20:59 | 32.32484 | 34.71263 | 2214 ft | 194 kts | 320° |
| 2026-04-25 20:59 | 32.33532 | 34.70204 | 2113 ft | 200 kts | 324° |
| 2026-04-25 20:59 | 32.34746 | 34.69407 | 2134 ft | 199 kts | 337° |
| 2026-04-25 21:00 | 32.36050 | 34.68812 | 2085 ft | 202 kts | 341° |
| 2026-04-25 21:00 | 32.36480 | 34.68634 | 2099 ft | 201 kts | 341° |
| 2026-04-25 21:00 | 32.39992 | 34.68103 | 2541 ft | 181 kts | 25° |
| 2026-04-25 21:01 | 32.40841 | 34.69150 | 2887 ft | 176 kts | 68° |
| 2026-04-25 21:01 | 32.40916 | 34.70502 | 3400 ft | 160 kts | 99° |
| 2026-04-25 21:01 | 32.40543 | 34.71747 | 3757 ft | 159 kts | 116° |
| 2026-04-25 21:01 | 32.39996 | 34.72862 | 4145 ft | 156 kts | 119° |
| 2026-04-25 21:02 | 32.39553 | 34.74012 | 4558 ft | 151 kts | 112° |
| 2026-04-25 21:02 | 32.39166 | 34.75176 | 4873 ft | 153 kts | 111° |
| 2026-04-25 21:02 | 32.38771 | 34.76359 | 5176 ft | 155 kts | 110° |
| 2026-04-25 21:02 | 32.38429 | 34.77573 | 5520 ft | 156 kts | 107° |
| 2026-04-25 21:03 | 32.38108 | 34.78800 | 5877 ft | 157 kts | 107° |
| 2026-04-25 21:03 | 32.37793 | 34.80053 | 6114 ft | 167 kts | 106° |
| 2026-04-25 21:03 | 32.37451 | 34.81433 | 6127 ft | 182 kts | 105° |
| 2026-04-25 21:03 | 32.37119 | 34.82926 | 6145 ft | 192 kts | 104° |
| 2026-04-25 21:04 | 32.36761 | 34.84478 | 6143 ft | 201 kts | 105° |
| 2026-04-25 21:04 | 32.36373 | 34.86083 | 6149 ft | 206 kts | 105° |
| 2026-04-25 21:04 | 32.35977 | 34.87711 | 6136 ft | 210 kts | 105° |
| 2026-04-25 21:04 | 32.35620 | 34.89384 | 6162 ft | 212 kts | 102° |
| 2026-04-25 21:05 | 32.35214 | 34.91083 | 6142 ft | 213 kts | 111° |
| 2026-04-25 21:05 | 32.34616 | 34.92699 | 6184 ft | 215 kts | 114° |
| 2026-04-25 21:05 | 32.33969 | 34.94309 | 6156 ft | 219 kts | 117° |
| 2026-04-25 21:05 | 32.33491 | 34.95986 | 6253 ft | 216 kts | 92° |
| 2026-04-25 21:06 | 32.34042 | 34.97584 | 6202 ft | 215 kts | 41° |
| 2026-04-25 21:06 | 32.35346 | 34.98376 | 6204 ft | 212 kts | 8° |
| 2026-04-25 21:06 | 32.36814 | 34.98330 | 6142 ft | 213 kts | 345° |
| 2026-04-25 21:06 | 32.37279 | 34.98187 | 6176 ft | 212 kts | 342° |
| 2026-04-25 21:07 | 32.39582 | 34.97125 | 6119 ft | 215 kts | 333° |
| 2026-04-25 21:07 | 32.40904 | 34.96293 | 6096 ft | 215 kts | 329° |
| 2026-04-25 21:07 | 32.42221 | 34.95497 | 6193 ft | 208 kts | 335° |
| 2026-04-25 21:07 | 32.43551 | 34.94897 | 6169 ft | 212 kts | 343° |
| 2026-04-25 21:08 | 32.45006 | 34.94651 | 6187 ft | 212 kts | 355° |
| 2026-04-25 21:08 | 32.46499 | 34.94651 | 6080 ft | 215 kts | 0° |
| 2026-04-25 21:08 | 32.47968 | 34.94690 | 6213 ft | 210 kts | 358° |
| 2026-04-25 21:08 | 32.49462 | 34.94625 | 6145 ft | 213 kts | 355° |
| 2026-04-25 21:09 | 32.52406 | 34.94249 | 6130 ft | 214 kts | 349° |
| 2026-04-25 21:09 | 32.53851 | 34.93866 | 6130 ft | 213 kts | 344° |
| 2026-04-25 21:09 | 32.55283 | 34.93388 | 6119 ft | 214 kts | 343° |
| 2026-04-25 21:10 | 32.56695 | 34.93035 | 6221 ft | 207 kts | 352° |
| 2026-04-25 21:10 | 32.58157 | 34.92923 | 6107 ft | 211 kts | 357° |
| 2026-04-25 21:10 | 32.59624 | 34.92918 | 6086 ft | 212 kts | 359° |
| 2026-04-25 21:10 | 32.61088 | 34.92882 | 6172 ft | 210 kts | 357° |
| 2026-04-25 21:11 | 32.62574 | 34.92801 | 6034 ft | 209 kts | 359° |
| 2026-04-25 21:11 | 32.64017 | 34.92745 | 6071 ft | 208 kts | 356° |
| 2026-04-25 21:11 | 32.65463 | 34.92664 | 6121 ft | 205 kts | 357° |
| 2026-04-25 21:11 | 32.66896 | 34.92569 | 6090 ft | 210 kts | 355° |
| 2026-04-25 21:12 | 32.68353 | 34.92430 | 6078 ft | 211 kts | 354° |
| 2026-04-25 21:12 | 32.69815 | 34.92253 | 6080 ft | 210 kts | 354° |
| 2026-04-25 21:12 | 32.71303 | 34.92164 | 5635 ft | 229 kts | 2° |
| 2026-04-25 21:12 | 32.71848 | 34.92224 | 5418 ft | 235 kts | 7° |
| 2026-04-25 21:13 | 32.74610 | 34.92836 | 4616 ft | 245 kts | 12° |
| 2026-04-25 21:13 | 32.76261 | 34.93218 | 4039 ft | 235 kts | 10° |
| 2026-04-25 21:13 | 32.77850 | 34.93567 | 3402 ft | 228 kts | 11° |
| 2026-04-25 21:13 | 32.79350 | 34.93952 | 3058 ft | 211 kts | 11° |
| 2026-04-25 21:14 | 32.80761 | 34.94281 | 2638 ft | 203 kts | 8° |
| 2026-04-25 21:14 | 32.81680 | 34.94450 | 2292 ft | 201 kts | 11° |
| 2026-04-25 21:14 | 32.82998 | 34.94980 | 1769 ft | 199 kts | 30° |
| 2026-04-25 21:14 | 32.83845 | 34.96158 | 1600 ft | 188 kts | 73° |
| 2026-04-25 21:15 | 32.84044 | 34.97691 | 1635 ft | 188 kts | 86° |
| 2026-04-25 21:15 | 32.84070 | 34.99270 | 1561 ft | 193 kts | 88° |
| 2026-04-25 21:15 | 32.84059 | 35.00882 | 1550 ft | 196 kts | 91° |
| 2026-04-25 21:15 | 32.83940 | 35.02480 | 1645 ft | 191 kts | 104° |
| 2026-04-25 21:16 | 32.83431 | 35.03863 | 1290 ft | 193 kts | 122° |
| 2026-04-25 21:16 | 32.82504 | 35.04949 | 1094 ft | 177 kts | 142° |
| 2026-04-25 21:16 | 32.81582 | 35.05764 | 1094 ft | 154 kts | 143° |
| 2026-04-25 21:16 | 32.80802 | 35.06429 | 1026 ft | 120 kts | 142° |
| 2026-04-25 21:17 | 32.80156 | 35.06989 | 982 ft | 120 kts | 143° |
| 2026-04-25 21:17 | 32.79387 | 35.07439 | 941 ft | 128 kts | 172° |
| 2026-04-25 21:17 | 32.78600 | 35.07040 | 982 ft | 130 kts | 226° |
| 2026-04-25 21:17 | 32.78050 | 35.06204 | 838 ft | 131 kts | 241° |
| 2026-04-25 21:18 | 32.78238 | 35.05341 | 629 ft | 111 kts | 333° |
| 2026-04-25 21:18 | 32.78927 | 35.05036 | 478 ft | 104 kts | 343° |
| 2026-04-25 21:18 | 32.79662 | 35.04871 | 270 ft | 109 kts | 351° |
| 2026-04-25 21:18 | 32.80348 | 35.04665 | 84 ft | 91 kts | 340° |
| 2026-04-25 21:19 | 32.80871 | 35.04440 | 21 ft | 63 kts | 338° |
| 2026-04-25 21:19 | 32.81393 | 35.04212 | 114 ft | 88 kts | 341° |
| 2026-04-25 21:19 | 32.82033 | 35.04002 | 380 ft | 111 kts | 351° |
| 2026-04-25 21:19 | 32.82853 | 35.03821 | 688 ft | 129 kts | 347° |
| 2026-04-25 21:20 | 32.83593 | 35.03456 | 1034 ft | 135 kts | 309° |
| 2026-04-25 21:20 | 32.83895 | 35.02770 | 1087 ft | 151 kts | 292° |
| 2026-04-25 21:20 | 32.84324 | 35.01051 | 1258 ft | 167 kts | 280° |
| 2026-04-25 21:20 | 32.84457 | 34.99582 | 1201 ft | 184 kts | 275° |
| 2026-04-25 21:21 | 32.84481 | 34.98040 | 1144 ft | 184 kts | 267° |
| 2026-04-25 21:21 | 32.84211 | 34.96542 | 1097 ft | 185 kts | 250° |
| 2026-04-25 21:21 | 32.83592 | 34.95239 | 1124 ft | 186 kts | 229° |
| 2026-04-25 21:21 | 32.82486 | 34.94456 | 1036 ft | 195 kts | 193° |
| 2026-04-25 21:22 | 32.81138 | 34.94258 | 1060 ft | 193 kts | 186° |
| 2026-04-25 21:22 | 32.79813 | 34.94022 | 1097 ft | 192 kts | 191° |
| 2026-04-25 21:22 | 32.78507 | 34.93704 | 1070 ft | 196 kts | 190° |
| 2026-04-25 21:22 | 32.77164 | 34.93329 | 914 ft | 205 kts | 202° |
| 2026-04-25 21:23 | 32.75975 | 34.92390 | 834 ft | 204 kts | 221° |
| 2026-04-25 21:23 | 32.74902 | 34.91244 | 669 ft | 209 kts | 229° |
| 2026-04-25 21:23 | 32.74139 | 34.89807 | 711 ft | 201 kts | 240° |
| 2026-04-25 21:23 | 32.73321 | 34.88447 | 541 ft | 208 kts | 228° |
| 2026-04-25 21:24 | 32.72219 | 34.87381 | 603 ft | 200 kts | 209° |
| 2026-04-25 21:24 | 32.70985 | 34.86659 | 681 ft | 196 kts | 206° |
| 2026-04-25 21:24 | 32.69716 | 34.86000 | 589 ft | 200 kts | 199° |
| 2026-04-25 21:24 | 32.68373 | 34.85587 | 541 ft | 202 kts | 192° |
| 2026-04-25 21:25 | 32.67004 | 34.85295 | 604 ft | 197 kts | 189° |
| 2026-04-25 21:25 | 32.65595 | 34.85030 | 605 ft | 212 kts | 188° |
| 2026-04-25 21:25 | 32.64091 | 34.84778 | 605 ft | 218 kts | 185° |
| 2026-04-25 21:25 | 32.62570 | 34.84641 | 526 ft | 222 kts | 183° |
| 2026-04-25 21:26 | 32.61063 | 34.84551 | 560 ft | 216 kts | 182° |
| 2026-04-25 21:26 | 32.59575 | 34.84475 | 558 ft | 210 kts | 182° |
| 2026-04-25 21:26 | 32.58157 | 34.84451 | 715 ft | 199 kts | 178° |
| 2026-04-25 21:26 | 32.56741 | 34.84580 | 597 ft | 204 kts | 172° |
| 2026-04-25 21:27 | 32.55342 | 34.84805 | 585 ft | 203 kts | 171° |
| 2026-04-25 21:27 | 32.53945 | 34.85062 | 594 ft | 202 kts | 168° |
| 2026-04-25 21:27 | 32.52576 | 34.85394 | 617 ft | 201 kts | 168° |
| 2026-04-25 21:27 | 32.51178 | 34.85657 | 529 ft | 205 kts | 172° |
| 2026-04-25 21:28 | 32.49772 | 34.85788 | 583 ft | 202 kts | 176° |
| 2026-04-25 21:28 | 32.48361 | 34.85806 | 565 ft | 202 kts | 181° |
| 2026-04-25 21:28 | 32.46947 | 34.85745 | 544 ft | 204 kts | 182° |
| 2026-04-25 21:28 | 32.45562 | 34.85598 | 778 ft | 184 kts | 182° |
| 2026-04-25 21:29 | 32.44477 | 34.86063 | 1493 ft | 159 kts | 142° |
| 2026-04-25 21:29 | 32.43654 | 34.86781 | 2108 ft | 144 kts | 142° |
| 2026-04-25 21:29 | 32.42787 | 34.87525 | 2117 ft | 165 kts | 148° |
| 2026-04-25 21:29 | 32.41665 | 34.88075 | 2040 ft | 183 kts | 163° |
| 2026-04-25 21:30 | 32.40415 | 34.88447 | 2121 ft | 187 kts | 167° |
| 2026-04-25 21:30 | 32.39153 | 34.88847 | 2195 ft | 190 kts | 162° |
| 2026-04-25 21:30 | 32.37809 | 34.89205 | 1980 ft | 204 kts | 180° |
| 2026-04-25 21:30 | 32.37031 | 34.89712 | 1897 ft | 200 kts | 139° |
| 2026-04-25 21:31 | 32.35563 | 34.89476 | 2054 ft | 185 kts | 252° |
| 2026-04-25 21:31 | 32.34807 | 34.89427 | 2068 ft | 159 kts | 123° |
| 2026-04-25 21:31 | 32.33895 | 34.89420 | 2025 ft | 166 kts | 160° |
| 2026-04-25 21:31 | 32.32817 | 34.90074 | 2014 ft | 183 kts | 150° |
| 2026-04-25 21:32 | 32.31590 | 34.90321 | 2025 ft | 199 kts | 196° |
| 2026-04-25 21:32 | 32.30219 | 34.89923 | 2125 ft | 207 kts | 192° |
| 2026-04-25 21:32 | 32.28770 | 34.89606 | 2147 ft | 216 kts | 189° |
| 2026-04-25 21:32 | 32.27259 | 34.89355 | 2092 ft | 224 kts | 188° |
| 2026-04-25 21:33 | 32.25745 | 34.89100 | 2136 ft | 219 kts | 189° |
| 2026-04-25 21:33 | 32.24248 | 34.88772 | 2037 ft | 219 kts | 192° |
| 2026-04-25 21:33 | 32.22823 | 34.88388 | 2042 ft | 198 kts | 197° |
| 2026-04-25 21:33 | 32.21665 | 34.87666 | 1672 ft | 197 kts | 225° |
| 2026-04-25 21:34 | 32.20865 | 34.86375 | 1266 ft | 189 kts | 231° |
| 2026-04-25 21:34 | 32.19831 | 34.85704 | 1198 ft | 165 kts | 191° |
| 2026-04-25 21:34 | 32.18701 | 34.85432 | 938 ft | 146 kts | 193° |
| 2026-04-25 21:34 | 32.17882 | 34.85140 | 603 ft | 110 kts | 213° |
| 2026-04-25 21:35 | 32.17753 | 34.84363 | 295 ft | 107 kts | 295° |
| 2026-04-25 21:35 | 32.17981 | 34.83621 | 110 ft | 76 kts | 291° |
| 2026-04-25 21:35 | 32.18097 | 34.83233 | 95 ft | 27 kts | 289° |
| 2026-04-25 21:35 | 32.18139 | 34.83089 | 93 ft | 11 kts | 291° |
| 2026-04-25 21:36 | 32.18108 | 34.83067 | 95 ft | 6 kts | 129° |
| 2026-04-25 21:36 | 32.18094 | 34.83120 | 96 ft | 11 kts | 110° |
| 2026-04-25 21:36 | 32.18069 | 34.83206 | 98 ft | 12 kts | 110° |
| 2026-04-25 21:36 | 32.18041 | 34.83300 | 99 ft | 12 kts | 109° |
| 2026-04-25 21:37 | 32.18017 | 34.83381 | 101 ft | 9 kts | 109° |
| 2026-04-25 21:37 | 32.18004 | 34.83427 | 103 ft | 9 kts | 108° |
| 2026-04-25 21:37 | 32.17978 | 34.83514 | 105 ft | 6 kts | 109° |
| 2026-04-25 21:37 | 32.17949 | 34.83606 | 108 ft | 12 kts | 107° |
| 2026-04-25 21:38 | 32.17918 | 34.83716 | 113 ft | 7 kts | 109° |
| 2026-04-25 21:38 | 32.17899 | 34.83782 | 115 ft | 7 kts | 112° |
| 2026-04-25 21:38 | 32.17873 | 34.83792 | 115 ft | 2 kts | 194° |
| 2026-04-25 21:38 | 32.17859 | 34.83813 | 117 ft | 0 kts | 72° |
| 2026-04-25 21:39 | 32.17873 | 34.83816 | 117 ft | 2 kts | 269° |
| 2026-04-25 21:39 | 32.17875 | 34.83801 | 114 ft | 0 kts | 288° |